createdAt,value
2022-08-03T00:01:37.704Z,2.08
2022-08-03T00:04:05.816Z,1.50
2022-08-03T00:06:36.746Z,1.70
2022-08-03T00:09:04.566Z,1.75
2022-08-03T00:11:31.263Z,2.05
2022-08-03T00:13:57.792Z,1.63
2022-08-03T00:16:25.546Z,1.40
2022-08-03T00:18:52.177Z,1.98
2022-08-03T00:21:19.682Z,1.67
2022-08-03T00:23:50.819Z,1.40
2022-08-03T00:26:19.401Z,1.90
2022-08-03T00:28:45.830Z,2.00
2022-08-03T00:31:13.645Z,1.73
2022-08-03T00:33:58.033Z,2.15
2022-08-03T00:36:26.461Z,2.00
2022-08-03T00:38:52.850Z,1.40
2022-08-03T00:41:19.289Z,1.50
2022-08-03T00:43:47.383Z,1.88
2022-08-03T00:46:16.449Z,1.95
2022-08-03T00:48:47.245Z,1.65
2022-08-03T00:51:13.809Z,1.30
2022-08-03T00:53:40.298Z,1.80
2022-08-03T00:56:06.794Z,2.08
2022-08-03T00:58:33.281Z,2.15
2022-08-03T01:00:59.832Z,1.65
2022-08-03T01:03:26.335Z,1.75
2022-08-03T01:06:02.968Z,2.10
2022-08-03T01:08:54.408Z,2.22
2022-08-03T01:12:01.231Z,2.10
2022-08-03T01:14:38.181Z,2.25
2022-08-03T01:17:13.928Z,2.58
2022-08-03T01:19:46.732Z,2.58
2022-08-03T01:22:34.830Z,2.35
2022-08-03T01:25:20.028Z,1.83
2022-08-03T01:28:05.129Z,2.40
2022-08-03T01:30:33.414Z,2.65
2022-08-03T01:33:20.133Z,2.65
2022-08-03T01:35:50.755Z,2.20
2022-08-03T01:38:32.225Z,2.08
2022-08-03T01:41:01.561Z,2.33
2022-08-03T01:43:55.061Z,2.05
2022-08-03T01:46:16.324Z,2.20
2022-08-03T01:48:44.753Z,1.92
2022-08-03T01:51:11.898Z,2.38
2022-08-03T01:53:39.921Z,2.50
2022-08-03T01:56:06.740Z,2.35
2022-08-03T01:58:34.926Z,2.50
2022-08-03T02:01:02.366Z,2.20
2022-08-03T02:03:29.582Z,3.42
2022-08-03T02:06:17.907Z,2.70
2022-08-03T02:08:44.740Z,2.65
2022-08-03T02:11:12.004Z,3.45
2022-08-03T02:13:40.765Z,2.80
2022-08-03T02:16:07.441Z,3.20
2022-08-03T02:18:34.308Z,3.60
2022-08-03T02:21:01.972Z,3.60
2022-08-03T02:23:37.712Z,3.10
2022-08-03T02:26:06.826Z,3.70
2022-08-03T02:28:35.612Z,4.25
2022-08-03T02:31:04.778Z,3.78
2022-08-03T02:33:37.407Z,4.03
2022-08-03T02:38:35.097Z,2.85
2022-08-03T02:41:04.627Z,3.70
2022-08-03T02:43:56.804Z,4.53
2022-08-03T02:46:19.805Z,4.20
2022-08-03T02:48:47.685Z,4.20
2022-08-03T02:51:14.654Z,4.75
2022-08-03T02:53:42.194Z,4.05
2022-08-03T02:56:09.597Z,4.97
2022-08-03T02:58:37.305Z,5.45
2022-08-03T03:01:04.155Z,4.63
2022-08-03T03:03:33.858Z,4.63
2022-08-03T03:06:09.188Z,5.18
2022-08-03T03:08:36.833Z,4.25
2022-08-03T03:11:07.473Z,3.95
2022-08-03T03:13:33.942Z,4.38
2022-08-03T03:16:03.837Z,4.82
2022-08-03T03:18:34.006Z,4.07
2022-08-03T03:21:04.539Z,5.05
2022-08-03T03:23:31.809Z,5.40
2022-08-03T03:26:02.165Z,5.05
2022-08-03T03:28:28.738Z,4.80
2022-08-03T03:30:55.292Z,5.00
2022-08-03T03:33:22.677Z,5.15
2022-08-03T03:35:49.260Z,4.95
2022-08-03T03:38:15.814Z,6.38
2022-08-03T03:40:42.550Z,4.82
2022-08-03T03:43:09.882Z,4.03
2022-08-03T03:45:36.701Z,5.38
2022-08-03T03:48:06.646Z,5.18
2022-08-03T03:50:34.405Z,5.18
2022-08-03T03:53:04.262Z,5.45
2022-08-03T03:55:31.083Z,5.28
2022-08-03T03:57:57.495Z,5.68
2022-08-03T04:00:23.954Z,5.68
2022-08-03T04:02:50.523Z,6.13
2022-08-03T04:05:35.772Z,7.03
2022-08-03T04:08:24.909Z,6.70
2022-08-03T04:11:14.578Z,5.60
2022-08-03T04:13:49.540Z,5.18
2022-08-03T04:16:17.901Z,4.65
2022-08-03T04:18:48.404Z,5.50
2022-08-03T04:21:16.177Z,5.82
2022-08-03T04:23:44.522Z,5.78
2022-08-03T04:26:12.063Z,5.97
2022-08-03T04:28:39.602Z,5.68
2022-08-03T04:31:07.266Z,6.63
2022-08-03T04:33:35.218Z,6.05
2022-08-03T04:36:04.972Z,5.55
2022-08-03T04:38:32.752Z,5.68
2022-08-03T04:40:59.796Z,6.15
2022-08-03T04:43:27.060Z,5.78
2022-08-03T04:45:54.257Z,6.13
2022-08-03T04:48:21.069Z,6.20
2022-08-03T04:50:48.781Z,5.85
2022-08-03T04:53:16.248Z,5.47
2022-08-03T04:55:42.900Z,5.65
2022-08-03T04:58:09.553Z,6.40
2022-08-03T05:00:36.072Z,6.63
2022-08-03T05:03:02.587Z,6.13
2022-08-03T05:05:36.282Z,6.65
2022-08-03T05:08:15.616Z,6.90
2022-08-03T05:11:35.925Z,6.47
2022-08-03T05:14:02.335Z,5.70
2022-08-03T05:16:28.723Z,6.45
2022-08-03T05:18:55.128Z,6.38
2022-08-03T05:21:21.521Z,6.95
2022-08-03T05:23:47.945Z,5.80
2022-08-03T05:26:14.433Z,5.88
2022-08-03T05:28:50.626Z,6.45
2022-08-03T05:31:17.585Z,5.78
2022-08-03T05:33:44.701Z,6.22
2022-08-03T05:36:12.573Z,5.65
2022-08-03T05:38:39.098Z,5.68
2022-08-03T05:41:21.755Z,6.32
2022-08-03T05:43:51.091Z,6.60
2022-08-03T05:46:17.421Z,5.88
2022-08-03T05:48:44.915Z,5.63
2022-08-03T05:51:12.067Z,5.40
2022-08-03T05:53:39.620Z,6.45
2022-08-03T05:56:13.714Z,6.22
2022-08-03T05:58:44.229Z,5.80
2022-08-03T06:01:10.848Z,6.35
2022-08-03T06:03:37.359Z,5.30
2022-08-03T06:06:03.882Z,6.82
2022-08-03T06:08:30.332Z,5.40
2022-08-03T06:10:56.757Z,4.32
2022-08-03T06:13:24.222Z,4.53
2022-08-03T06:15:50.636Z,4.13
2022-08-03T06:18:17.088Z,5.18
2022-08-03T06:20:43.544Z,4.80
2022-08-03T06:23:15.959Z,4.30
2022-08-03T06:25:43.016Z,4.45
2022-08-03T06:28:15.004Z,4.30
2022-08-03T06:30:50.776Z,3.70
2022-08-03T06:33:17.154Z,5.03
2022-08-03T06:35:45.238Z,3.50
2022-08-03T06:38:12.888Z,3.90
2022-08-03T06:40:42.267Z,3.42
2022-08-03T06:43:12.465Z,3.05
2022-08-03T06:45:39.625Z,3.13
2022-08-03T06:48:15.078Z,2.50
2022-08-03T06:50:41.857Z,2.80
2022-08-03T06:53:09.593Z,2.92
2022-08-03T06:55:44.626Z,3.38
2022-08-03T06:58:10.999Z,3.05
2022-08-03T07:00:37.405Z,2.65
2022-08-03T07:03:03.793Z,2.83
2022-08-03T07:05:30.692Z,2.33
2022-08-03T07:07:57.742Z,2.42
2022-08-03T07:10:24.230Z,3.15
2022-08-03T07:12:56.086Z,2.97
2022-08-03T07:15:54.580Z,3.33
2022-08-03T07:18:10.859Z,2.35
2022-08-03T07:20:37.212Z,2.65
2022-08-03T07:23:03.631Z,3.05
2022-08-03T07:25:30.034Z,3.03
2022-08-03T07:27:56.466Z,2.90
2022-08-03T07:30:22.964Z,3.10
2022-08-03T07:32:50.555Z,2.75
2022-08-03T07:35:24.410Z,3.35
2022-08-03T07:37:54.081Z,2.67
2022-08-03T07:40:22.058Z,2.75
2022-08-03T07:42:48.550Z,2.97
2022-08-03T07:45:19.796Z,2.58
2022-08-03T07:47:53.236Z,3.58
2022-08-03T07:50:20.849Z,2.63
2022-08-03T07:52:51.642Z,2.78
2022-08-03T07:55:19.045Z,2.80
2022-08-03T07:57:45.510Z,2.47
2022-08-03T08:00:18.717Z,2.75
2022-08-03T08:02:45.385Z,2.42
2022-08-03T08:05:12.486Z,3.03
2022-08-03T08:07:39.002Z,2.15
2022-08-03T08:10:06.257Z,2.28
2022-08-03T08:12:32.772Z,2.25
2022-08-03T08:14:59.137Z,2.42
2022-08-03T08:17:25.509Z,2.80
2022-08-03T08:19:53.222Z,2.17
2022-08-03T08:22:30.169Z,2.75
2022-08-03T08:24:57.391Z,2.53
2022-08-03T08:27:23.762Z,3.22
2022-08-03T08:29:54.583Z,2.50
2022-08-03T08:32:23.889Z,2.33
2022-08-03T08:34:50.344Z,3.40
2022-08-03T08:37:16.707Z,2.90
2022-08-03T08:39:43.132Z,2.67
2022-08-03T08:42:10.095Z,3.00
2022-08-03T08:44:36.466Z,2.50
2022-08-03T08:47:03.311Z,2.83
2022-08-03T08:49:30.190Z,2.33
2022-08-03T08:52:00.820Z,2.83
2022-08-03T08:54:29.062Z,2.70
2022-08-03T08:56:56.682Z,2.70
2022-08-03T08:59:23.861Z,2.47
2022-08-03T09:01:50.367Z,2.40
2022-08-03T09:04:16.954Z,2.60
2022-08-03T09:06:58.657Z,2.40
2022-08-03T09:10:12.048Z,3.00
2022-08-03T09:12:40.591Z,2.97
2022-08-03T09:15:23.246Z,2.50
2022-08-03T09:17:51.356Z,2.15
2022-08-03T09:20:18.547Z,2.67
2022-08-03T09:23:00.247Z,2.72
2022-08-03T09:25:37.115Z,2.30
2022-08-03T09:28:05.166Z,2.28
2022-08-03T09:30:34.674Z,2.28
2022-08-03T09:33:05.754Z,2.28
2022-08-03T09:35:53.163Z,2.53
2022-08-03T09:38:23.946Z,1.98
2022-08-03T09:43:17.295Z,2.05
2022-08-03T09:45:44.342Z,2.33
2022-08-03T09:48:30.154Z,2.17
2022-08-03T09:51:13.086Z,2.33
2022-08-03T09:53:58.713Z,2.10
2022-08-03T09:56:37.730Z,2.28
2022-08-03T09:59:04.374Z,2.05
2022-08-03T10:01:35.068Z,2.72
2022-08-03T10:04:03.219Z,2.47
2022-08-03T10:06:30.970Z,2.60
2022-08-03T10:09:07.770Z,2.63
2022-08-03T10:11:41.339Z,2.90
2022-08-03T10:14:10.045Z,2.60
2022-08-03T10:16:37.467Z,2.70
2022-08-03T10:19:04.732Z,2.63
2022-08-03T10:21:33.762Z,2.40
2022-08-03T10:24:02.130Z,2.50
2022-08-03T10:26:31.150Z,2.97
2022-08-03T10:28:58.639Z,3.40
2022-08-03T10:31:25.502Z,3.17
2022-08-03T10:33:55.830Z,2.85
2022-08-03T10:36:23.453Z,2.95
2022-08-03T10:38:54.084Z,2.40
2022-08-03T10:41:21.492Z,2.97
2022-08-03T10:43:53.015Z,2.42
2022-08-03T10:48:46.334Z,3.08
2022-08-03T10:51:13.637Z,2.92
2022-08-03T10:53:42.460Z,3.30
2022-08-03T10:56:51.165Z,3.25
2022-08-03T10:59:27.765Z,3.55
2022-08-03T11:01:58.934Z,3.28
2022-08-03T11:04:29.240Z,3.47
2022-08-03T11:07:14.457Z,3.42
2022-08-03T11:09:44.603Z,2.95
2022-08-03T11:12:30.213Z,3.55
2022-08-03T11:14:58.459Z,3.65
2022-08-03T11:17:24.893Z,4.30
2022-08-03T11:19:56.895Z,3.78
2022-08-03T11:22:25.031Z,3.70
2022-08-03T11:24:53.702Z,3.72
2022-08-03T11:27:21.325Z,3.50
2022-08-03T11:29:56.860Z,3.97
2022-08-03T11:32:40.045Z,3.90
2022-08-03T11:35:13.969Z,4.43
2022-08-03T11:38:03.045Z,3.75
2022-08-03T11:40:40.927Z,4.38
2022-08-03T11:43:08.628Z,4.10
2022-08-03T11:45:35.738Z,3.58
2022-08-03T11:48:15.843Z,3.85
2022-08-03T11:50:45.198Z,3.72
2022-08-03T11:53:16.678Z,3.70
2022-08-03T11:55:46.785Z,4.25
2022-08-03T11:59:01.773Z,3.50
2022-08-03T12:01:07.650Z,4.47
2022-08-03T12:03:34.545Z,3.45
2022-08-03T12:06:04.706Z,4.30
2022-08-03T12:08:32.743Z,4.30
2022-08-03T12:11:00.575Z,4.00
2022-08-03T12:14:45.023Z,4.00
2022-08-03T12:16:19.689Z,4.05
2022-08-03T12:18:52.819Z,3.78
2022-08-03T12:21:19.230Z,2.70
2022-08-03T12:23:45.570Z,3.55
2022-08-03T12:26:12.190Z,2.80
2022-08-03T12:28:49.779Z,2.92
2022-08-03T12:31:16.927Z,2.90
2022-08-03T12:33:56.946Z,2.40
2022-08-03T12:36:23.557Z,2.65
2022-08-03T12:38:57.402Z,3.22
2022-08-03T12:41:35.040Z,3.40
2022-08-03T12:44:03.471Z,2.38
2022-08-03T12:46:43.941Z,2.40
2022-08-03T12:49:15.371Z,2.58
2022-08-03T12:51:41.822Z,3.05
2022-08-03T12:54:08.693Z,2.10
2022-08-03T12:56:35.286Z,2.75
2022-08-03T12:59:21.633Z,2.88
2022-08-03T13:01:49.151Z,2.83
2022-08-03T13:04:25.628Z,2.30
2022-08-03T13:07:02.677Z,2.42
2022-08-03T13:09:31.783Z,2.40
2022-08-03T13:12:15.390Z,3.20
2022-08-03T13:14:46.924Z,2.33
2022-08-03T13:17:13.507Z,2.35
2022-08-03T13:19:40.254Z,2.30
2022-08-03T13:22:18.919Z,2.47
2022-08-03T13:24:46.252Z,2.60
2022-08-03T13:28:01.464Z,2.45
2022-08-03T13:29:59.534Z,2.60
2022-08-03T13:32:25.929Z,2.25
2022-08-03T13:34:52.313Z,1.92
2022-08-03T13:37:18.826Z,2.42
2022-08-03T13:39:58.471Z,2.33
2022-08-03T13:42:26.840Z,2.42
2022-08-03T13:44:53.177Z,2.40
2022-08-03T13:47:20.182Z,2.00
2022-08-03T13:49:54.148Z,1.50
2022-08-03T13:52:32.170Z,2.03
2022-08-03T13:54:58.921Z,1.50
2022-08-03T13:58:03.394Z,1.73
2022-08-03T14:00:12.194Z,1.70
2022-08-03T14:02:38.852Z,1.80
2022-08-03T14:05:05.645Z,1.50
2022-08-03T14:07:32.021Z,1.92
2022-08-03T14:09:58.489Z,1.73
2022-08-03T14:12:24.876Z,1.35
2022-08-03T14:14:51.275Z,1.45
2022-08-03T14:17:18.126Z,1.85
2022-08-03T14:19:52.965Z,1.70
2022-08-03T14:22:20.872Z,2.00
2022-08-03T14:24:47.261Z,1.80
2022-08-03T14:27:13.603Z,2.08
2022-08-03T14:29:39.979Z,1.55
2022-08-03T14:32:11.914Z,1.85
2022-08-03T14:34:39.477Z,2.38
2022-08-03T14:37:06.212Z,2.10
2022-08-03T14:42:20.345Z,1.65
2022-08-03T14:44:46.822Z,1.60
2022-08-03T14:47:13.745Z,1.50
2022-08-03T14:50:36.612Z,1.50
2022-08-03T14:52:26.633Z,1.38
2022-08-03T14:54:53.086Z,1.77
2022-08-03T14:57:19.545Z,1.63
2022-08-03T14:59:56.898Z,1.38
2022-08-03T15:02:24.599Z,1.70
2022-08-03T15:04:51.352Z,2.20
2022-08-03T15:07:17.948Z,2.25
2022-08-03T15:09:44.538Z,1.33
2022-08-03T15:12:10.962Z,1.90
2022-08-03T15:14:37.872Z,1.80
2022-08-03T15:17:04.593Z,1.65
2022-08-03T15:20:02.235Z,1.50
2022-08-03T15:22:20.731Z,1.60
2022-08-03T15:24:51.628Z,1.52
2022-08-03T15:27:18.164Z,1.90
2022-08-03T15:30:05.988Z,1.83
2022-08-03T15:32:31.027Z,2.00
2022-08-03T15:34:57.379Z,1.48
2022-08-03T15:37:25.570Z,1.45
2022-08-03T15:39:59.579Z,2.13
2022-08-03T15:42:30.616Z,2.17
2022-08-03T15:44:57.061Z,1.70
2022-08-03T15:47:23.420Z,2.53
2022-08-03T15:49:49.799Z,1.75
2022-08-03T15:52:16.201Z,1.85
2022-08-03T15:54:42.765Z,1.60
2022-08-03T15:57:09.129Z,2.10
2022-08-03T15:59:35.492Z,2.22
2022-08-03T16:02:01.984Z,1.52
2022-08-03T16:04:28.506Z,2.10
2022-08-03T16:06:54.941Z,1.80
2022-08-03T16:09:23.124Z,1.80
2022-08-03T16:11:50.980Z,1.55
2022-08-03T16:14:32.671Z,1.75
2022-08-03T16:17:02.142Z,2.85
2022-08-03T16:19:28.590Z,1.83
2022-08-03T16:21:54.961Z,1.98
2022-08-03T16:24:28.119Z,1.73
2022-08-03T16:26:54.945Z,1.42
2022-08-03T16:29:23.105Z,1.60
2022-08-03T16:31:50.956Z,1.92
2022-08-03T16:34:18.165Z,1.67
2022-08-03T16:36:46.592Z,1.67
2022-08-03T16:39:13.089Z,1.50
2022-08-03T16:42:00.480Z,1.77
2022-08-03T16:44:26.121Z,2.10
2022-08-03T16:46:53.604Z,2.40
2022-08-03T16:49:55.031Z,1.83
2022-08-03T16:52:07.242Z,2.85
2022-08-03T16:54:33.829Z,2.75
2022-08-03T16:57:01.395Z,2.15
2022-08-03T16:59:35.934Z,1.45
2022-08-03T17:02:07.980Z,2.00
2022-08-03T17:04:36.633Z,1.92
2022-08-03T17:07:06.931Z,2.08
2022-08-03T17:09:38.813Z,1.60
2022-08-03T17:12:05.765Z,1.75
2022-08-03T17:14:33.751Z,1.40
2022-08-03T17:17:01.424Z,1.80
2022-08-03T17:19:28.913Z,1.90
2022-08-03T17:21:57.046Z,1.92
2022-08-03T17:24:28.668Z,1.38
2022-08-03T17:26:55.429Z,1.48
2022-08-03T17:29:25.166Z,1.83
2022-08-03T17:31:52.939Z,1.67
2022-08-03T17:34:19.896Z,1.90
2022-08-03T17:37:03.903Z,1.60
2022-08-03T17:39:57.163Z,1.30
2022-08-03T17:42:29.630Z,1.40
2022-08-03T17:44:58.570Z,1.80
2022-08-03T17:47:41.847Z,1.55
2022-08-03T17:50:25.050Z,1.80
2022-08-03T17:52:57.842Z,1.73
2022-08-03T17:58:32.901Z,1.92
2022-08-03T18:01:58.323Z,2.03
2022-08-03T18:04:10.909Z,2.17
2022-08-03T18:06:56.152Z,2.58
2022-08-03T18:10:04.852Z,2.78
2022-08-03T18:12:13.063Z,2.40
2022-08-03T18:14:57.162Z,2.25
2022-08-03T18:17:55.804Z,2.35
2022-08-03T18:20:32.106Z,1.48
2022-08-03T18:23:04.465Z,1.90
2022-08-03T18:25:42.716Z,1.70
2022-08-03T18:28:18.673Z,2.03
2022-08-03T18:30:53.492Z,1.80
2022-08-03T18:34:32.009Z,1.80
2022-08-03T18:36:10.904Z,1.85
2022-08-03T18:38:41.032Z,1.85
2022-08-03T18:41:15.705Z,1.52
2022-08-03T18:44:07.811Z,1.63
2022-08-03T18:46:37.642Z,1.50
2022-08-03T18:49:12.634Z,1.80
2022-08-03T18:54:51.748Z,1.95
2022-08-03T18:57:15.829Z,1.55
2022-08-03T19:00:10.528Z,1.50
2022-08-03T19:02:41.395Z,1.95
2022-08-03T19:05:20.428Z,1.42
2022-08-03T19:07:59.862Z,1.90
2022-08-03T19:10:30.201Z,2.03
2022-08-03T19:15:36.369Z,1.65
2022-08-03T19:18:08.761Z,1.83
2022-08-03T19:20:37.533Z,1.67
2022-08-03T19:23:04.338Z,2.00
2022-08-03T19:25:37.773Z,1.50
2022-08-03T19:28:05.935Z,2.17
2022-08-03T19:30:39.043Z,1.92
2022-08-03T19:33:07.513Z,1.60
2022-08-03T19:35:51.696Z,1.85
2022-08-03T19:38:27.432Z,1.80
2022-08-03T19:40:56.862Z,1.60
2022-08-03T19:43:33.320Z,1.65
2022-08-03T19:46:16.461Z,2.05
2022-08-03T19:48:43.540Z,1.70
2022-08-03T19:51:12.673Z,1.52
2022-08-03T19:53:44.886Z,1.70
2022-08-03T19:56:14.195Z,1.70
2022-08-03T19:58:42.453Z,1.80
2022-08-03T20:01:19.522Z,1.92
2022-08-03T20:03:48.582Z,1.65
2022-08-03T20:06:23.037Z,2.08
2022-08-03T20:08:51.761Z,1.55
2022-08-03T20:11:18.699Z,1.60
2022-08-03T20:13:46.236Z,1.98
2022-08-03T20:16:14.953Z,1.60
2022-08-03T20:18:43.592Z,1.95
2022-08-03T20:21:15.205Z,1.95
2022-08-03T20:24:22.906Z,2.25
2022-08-03T20:26:29.692Z,2.00
2022-08-03T20:29:00.782Z,1.58
2022-08-03T20:31:37.473Z,2.40
2022-08-03T20:34:04.743Z,2.35
2022-08-03T20:36:31.750Z,2.38
2022-08-03T20:38:59.051Z,2.17
2022-08-03T20:41:26.468Z,2.35
2022-08-03T20:43:53.027Z,2.42
2022-08-03T20:46:29.117Z,1.75
2022-08-03T20:49:00.929Z,2.10
2022-08-03T20:51:50.140Z,1.95
2022-08-03T20:54:22.729Z,1.58
2022-08-03T20:56:57.678Z,1.95
2022-08-03T20:59:28.676Z,2.22
2022-08-03T21:01:56.978Z,1.90
2022-08-03T21:04:24.014Z,2.08
2022-08-03T21:06:57.008Z,2.38
2022-08-03T21:09:25.066Z,2.22
2022-08-03T21:12:02.878Z,2.08
2022-08-03T21:13:00.575Z,1.90
2022-08-03T21:13:05.980Z,0.93
2022-08-03T21:17:01.745Z,2.35
2022-08-03T21:19:34.157Z,2.35
2022-08-03T21:22:03.197Z,1.92
2022-08-03T21:24:33.068Z,1.80
2022-08-03T21:27:00.164Z,1.90
2022-08-03T21:29:28.100Z,2.22
2022-08-03T21:31:55.212Z,2.00
2022-08-03T21:34:22.551Z,2.20
2022-08-03T21:36:48.945Z,2.42
2022-08-03T21:39:15.524Z,1.92
2022-08-03T21:41:42.039Z,2.10
2022-08-03T21:44:08.642Z,1.98
2022-08-03T21:46:37.029Z,1.73
2022-08-03T21:50:02.656Z,1.67
2022-08-03T21:51:52.094Z,1.75
2022-08-03T21:54:20.477Z,2.05
2022-08-03T21:56:47.474Z,2.05
2022-08-03T21:59:17.946Z,1.88
2022-08-03T22:01:48.933Z,2.42
2022-08-03T22:04:38.807Z,1.92
2022-08-03T22:07:06.725Z,2.15
2022-08-03T22:09:35.232Z,2.38
2022-08-03T22:12:01.749Z,1.88
2022-08-03T22:14:28.793Z,2.00
2022-08-03T22:16:56.197Z,1.70
2022-08-03T22:19:22.698Z,2.13
2022-08-03T22:21:49.636Z,1.83
2022-08-03T22:24:18.941Z,1.90
2022-08-03T22:27:09.575Z,2.30
2022-08-03T22:29:36.573Z,2.20
2022-08-03T22:32:03.411Z,2.08
2022-08-03T22:34:30.028Z,2.00
2022-08-03T22:37:00.562Z,2.00
2022-08-03T22:39:28.050Z,1.73
2022-08-03T22:41:55.786Z,1.92
2022-08-03T22:44:24.689Z,1.70
2022-08-03T22:46:51.342Z,2.20
2022-08-03T22:49:18.055Z,2.25
2022-08-03T22:51:45.869Z,1.88
2022-08-03T22:54:12.334Z,1.98
2022-08-03T22:56:39.010Z,1.85
2022-08-03T22:59:41.127Z,2.40
2022-08-03T23:01:55.442Z,1.90
2022-08-03T23:04:22.851Z,1.88
2022-08-03T23:06:50.549Z,1.90
2022-08-03T23:09:19.673Z,1.85
2022-08-03T23:11:46.829Z,2.13
2022-08-03T23:14:15.769Z,1.50
2022-08-03T23:16:42.893Z,1.92
2022-08-03T23:19:17.137Z,1.45
2022-08-03T23:22:00.784Z,1.52
2022-08-03T23:24:30.286Z,1.30
2022-08-03T23:26:57.063Z,2.00
2022-08-03T23:29:23.577Z,2.00
2022-08-03T23:31:52.156Z,2.00
2022-08-03T23:34:40.126Z,1.90
2022-08-03T23:37:06.596Z,2.08
2022-08-03T23:39:35.347Z,1.65
2022-08-03T23:42:02.844Z,1.58
2022-08-03T23:44:30.426Z,2.17
2022-08-03T23:46:57.263Z,1.90
2022-08-03T23:49:23.671Z,1.70
2022-08-03T23:51:57.300Z,2.28
2022-08-03T23:54:28.513Z,1.65
2022-08-03T23:57:04.909Z,1.95
